sensor_id;sensor_type;location;lat;lon;timestamp;temperature;humidity
10472;DHT22;5283;48.876;8.962;2023-03-03T00:01:27;-3.00;99.90
10472;DHT22;5283;48.876;8.962;2023-03-03T00:03:55;-3.00;99.90
10472;DHT22;5283;48.876;8.962;2023-03-03T00:06:21;-3.10;99.90
10472;DHT22;5283;48.876;8.962;2023-03-03T00:08:50;-3.00;99.90
10472;DHT22;5283;48.876;8.962;2023-03-03T00:11:17;-3.20;99.90
10472;DHT22;5283;48.876;8.962;2023-03-03T00:13:50;-3.20;99.90
10472;DHT22;5283;48.876;8.962;2023-03-03T00:19:02;-3.20;99.90
10472;DHT22;5283;48.876;8.962;2023-03-03T00:21:44;-3.20;99.90
10472;DHT22;5283;48.876;8.962;2023-03-03T00:24:35;-3.20;99.90
10472;DHT22;5283;48.876;8.962;2023-03-03T00:27:17;-3.20;99.90
10472;DHT22;5283;48.876;8.962;2023-03-03T00:29:52;-3.30;99.90
10472;DHT22;5283;48.876;8.962;2023-03-03T00:34:54;-3.30;99.90
10472;DHT22;5283;48.876;8.962;2023-03-03T00:37:33;-3.30;99.90
10472;DHT22;5283;48.876;8.962;2023-03-03T00:40:22;-3.40;99.90
10472;DHT22;5283;48.876;8.962;2023-03-03T00:42:53;-3.40;99.90
10472;DHT22;5283;48.876;8.962;2023-03-03T00:51:11;-3.60;99.90
10472;DHT22;5283;48.876;8.962;2023-03-03T00:53:44;-3.60;99.90
10472;DHT22;5283;48.876;8.962;2023-03-03T00:56:11;-3.60;99.90
10472;DHT22;5283;48.876;8.962;2023-03-03T00:58:37;-3.50;99.90
10472;DHT22;5283;48.876;8.962;2023-03-03T01:01:04;-3.40;99.90
10472;DHT22;5283;48.876;8.962;2023-03-03T01:03:31;-3.40;99.90
10472;DHT22;5283;48.876;8.962;2023-03-03T01:05:58;-3.50;99.90
10472;DHT22;5283;48.876;8.962;2023-03-03T01:08:24;-3.50;99.90
10472;DHT22;5283;48.876;8.962;2023-03-03T01:10:57;-3.60;99.90
10472;DHT22;5283;48.876;8.962;2023-03-03T01:13:30;-3.60;99.90
10472;DHT22;5283;48.876;8.962;2023-03-03T01:15:58;-3.70;99.90
10472;DHT22;5283;48.876;8.962;2023-03-03T01:18:26;-3.70;99.90
10472;DHT22;5283;48.876;8.962;2023-03-03T01:20:53;-3.80;99.90
10472;DHT22;5283;48.876;8.962;2023-03-03T01:23:20;-3.80;99.90
10472;DHT22;5283;48.876;8.962;2023-03-03T01:25:47;-3.90;99.90
10472;DHT22;5283;48.876;8.962;2023-03-03T01:28:13;-3.90;99.90
10472;DHT22;5283;48.876;8.962;2023-03-03T01:30:40;-3.80;99.90
10472;DHT22;5283;48.876;8.962;2023-03-03T01:33:07;-3.80;99.90
10472;DHT22;5283;48.876;8.962;2023-03-03T01:35:33;-3.90;99.90
10472;DHT22;5283;48.876;8.962;2023-03-03T01:38:02;-3.90;99.90
10472;DHT22;5283;48.876;8.962;2023-03-03T01:40:29;-3.90;99.90
10472;DHT22;5283;48.876;8.962;2023-03-03T01:42:59;-4.00;99.90
10472;DHT22;5283;48.876;8.962;2023-03-03T01:45:28;-4.00;99.90
10472;DHT22;5283;48.876;8.962;2023-03-03T01:47:56;-4.00;99.90
10472;DHT22;5283;48.876;8.962;2023-03-03T01:52:57;-3.80;99.90
10472;DHT22;5283;48.876;8.962;2023-03-03T01:55:33;-3.70;99.90
10472;DHT22;5283;48.876;8.962;2023-03-03T01:58:10;-3.60;99.90
10472;DHT22;5283;48.876;8.962;2023-03-03T02:00:40;-3.70;99.90
10472;DHT22;5283;48.876;8.962;2023-03-03T02:03:08;-3.70;99.90
10472;DHT22;5283;48.876;8.962;2023-03-03T02:05:35;-3.70;99.90
10472;DHT22;5283;48.876;8.962;2023-03-03T02:08:03;-3.70;99.90
10472;DHT22;5283;48.876;8.962;2023-03-03T02:10:30;-3.80;99.90
10472;DHT22;5283;48.876;8.962;2023-03-03T02:12:57;-3.80;99.90
10472;DHT22;5283;48.876;8.962;2023-03-03T02:15:32;-3.90;99.90
10472;DHT22;5283;48.876;8.962;2023-03-03T02:18:13;-4.00;99.90
10472;DHT22;5283;48.876;8.962;2023-03-03T02:23:33;-3.90;99.90
10472;DHT22;5283;48.876;8.962;2023-03-03T02:26:11;-3.90;99.90
10472;DHT22;5283;48.876;8.962;2023-03-03T02:28:39;-3.90;99.90
10472;DHT22;5283;48.876;8.962;2023-03-03T02:31:12;-3.90;99.90
10472;DHT22;5283;48.876;8.962;2023-03-03T02:33:43;-4.00;99.90
10472;DHT22;5283;48.876;8.962;2023-03-03T02:36:24;-3.90;99.90
10472;DHT22;5283;48.876;8.962;2023-03-03T02:39:10;-3.90;99.90
10472;DHT22;5283;48.876;8.962;2023-03-03T02:44:11;-4.00;99.90
10472;DHT22;5283;48.876;8.962;2023-03-03T02:46:40;-3.90;99.90
10472;DHT22;5283;48.876;8.962;2023-03-03T02:49:10;-4.00;99.90
10472;DHT22;5283;48.876;8.962;2023-03-03T02:51:37;-3.90;99.90
10472;DHT22;5283;48.876;8.962;2023-03-03T02:54:05;-3.90;99.90
10472;DHT22;5283;48.876;8.962;2023-03-03T02:56:32;-3.80;99.90
10472;DHT22;5283;48.876;8.962;2023-03-03T02:58:59;-3.90;99.90
10472;DHT22;5283;48.876;8.962;2023-03-03T03:01:26;-3.90;99.90
10472;DHT22;5283;48.876;8.962;2023-03-03T03:03:53;-4.00;99.90
10472;DHT22;5283;48.876;8.962;2023-03-03T03:06:19;-4.00;99.90
10472;DHT22;5283;48.876;8.962;2023-03-03T03:08:46;-4.10;99.90
10472;DHT22;5283;48.876;8.962;2023-03-03T03:11:13;-4.20;99.90
10472;DHT22;5283;48.876;8.962;2023-03-03T03:13:39;-4.20;99.90
10472;DHT22;5283;48.876;8.962;2023-03-03T03:16:06;-4.20;99.90
10472;DHT22;5283;48.876;8.962;2023-03-03T03:18:33;-4.20;99.90
10472;DHT22;5283;48.876;8.962;2023-03-03T03:21:10;-4.20;99.90
10472;DHT22;5283;48.876;8.962;2023-03-03T03:23:39;-4.20;99.90
10472;DHT22;5283;48.876;8.962;2023-03-03T03:26:06;-4.20;99.90
10472;DHT22;5283;48.876;8.962;2023-03-03T03:28:34;-4.10;99.90
10472;DHT22;5283;48.876;8.962;2023-03-03T03:31:03;-4.10;99.90
10472;DHT22;5283;48.876;8.962;2023-03-03T03:33:30;-4.00;99.90
10472;DHT22;5283;48.876;8.962;2023-03-03T03:35:57;-3.80;99.90
10472;DHT22;5283;48.876;8.962;2023-03-03T03:38:25;-3.60;99.90
10472;DHT22;5283;48.876;8.962;2023-03-03T03:40:53;-3.50;99.90
10472;DHT22;5283;48.876;8.962;2023-03-03T03:43:20;-3.50;99.90
10472;DHT22;5283;48.876;8.962;2023-03-03T03:45:47;-3.40;99.90
10472;DHT22;5283;48.876;8.962;2023-03-03T03:48:14;-3.20;99.90
10472;DHT22;5283;48.876;8.962;2023-03-03T03:50:42;-3.10;99.90
10472;DHT22;5283;48.876;8.962;2023-03-03T03:53:08;-3.00;99.90
10472;DHT22;5283;48.876;8.962;2023-03-03T03:55:35;-2.90;99.90
10472;DHT22;5283;48.876;8.962;2023-03-03T03:58:02;-2.80;99.90
10472;DHT22;5283;48.876;8.962;2023-03-03T04:00:29;-2.80;99.90
10472;DHT22;5283;48.876;8.962;2023-03-03T04:02:56;-2.70;99.90
10472;DHT22;5283;48.876;8.962;2023-03-03T04:05:23;-2.70;99.90
10472;DHT22;5283;48.876;8.962;2023-03-03T04:07:49;-2.70;99.90
10472;DHT22;5283;48.876;8.962;2023-03-03T04:10:16;-2.60;99.90
10472;DHT22;5283;48.876;8.962;2023-03-03T04:12:43;-2.60;99.90
10472;DHT22;5283;48.876;8.962;2023-03-03T04:15:12;-2.50;99.90
10472;DHT22;5283;48.876;8.962;2023-03-03T04:17:40;-2.40;99.90
10472;DHT22;5283;48.876;8.962;2023-03-03T04:20:09;-2.40;99.90
10472;DHT22;5283;48.876;8.962;2023-03-03T04:22:36;-2.30;99.90
10472;DHT22;5283;48.876;8.962;2023-03-03T04:25:04;-2.30;99.90
10472;DHT22;5283;48.876;8.962;2023-03-03T04:27:32;-2.20;99.90
10472;DHT22;5283;48.876;8.962;2023-03-03T04:29:59;-2.10;99.90
10472;DHT22;5283;48.876;8.962;2023-03-03T04:32:25;-2.00;99.90
10472;DHT22;5283;48.876;8.962;2023-03-03T04:34:52;-2.00;99.90
10472;DHT22;5283;48.876;8.962;2023-03-03T04:37:32;-1.90;99.90
10472;DHT22;5283;48.876;8.962;2023-03-03T04:39:59;-1.80;99.90
10472;DHT22;5283;48.876;8.962;2023-03-03T04:42:26;-1.80;99.90
10472;DHT22;5283;48.876;8.962;2023-03-03T04:44:53;-1.70;99.90
10472;DHT22;5283;48.876;8.962;2023-03-03T04:47:20;-1.70;99.90
10472;DHT22;5283;48.876;8.962;2023-03-03T04:49:47;-1.60;99.90
10472;DHT22;5283;48.876;8.962;2023-03-03T04:52:14;-1.60;99.90
10472;DHT22;5283;48.876;8.962;2023-03-03T04:54:40;-1.50;99.90
10472;DHT22;5283;48.876;8.962;2023-03-03T04:57:07;-1.50;99.90
10472;DHT22;5283;48.876;8.962;2023-03-03T04:59:35;-1.50;99.90
10472;DHT22;5283;48.876;8.962;2023-03-03T05:02:02;-1.40;99.90
10472;DHT22;5283;48.876;8.962;2023-03-03T05:04:31;-1.40;99.90
10472;DHT22;5283;48.876;8.962;2023-03-03T05:06:58;-1.40;99.90
10472;DHT22;5283;48.876;8.962;2023-03-03T05:09:25;-1.40;99.90
10472;DHT22;5283;48.876;8.962;2023-03-03T05:11:52;-1.40;99.90
10472;DHT22;5283;48.876;8.962;2023-03-03T05:14:19;-1.40;99.90
10472;DHT22;5283;48.876;8.962;2023-03-03T05:16:46;-1.40;99.90
10472;DHT22;5283;48.876;8.962;2023-03-03T05:19:13;-1.40;99.90
10472;DHT22;5283;48.876;8.962;2023-03-03T05:21:39;-1.30;99.90
10472;DHT22;5283;48.876;8.962;2023-03-03T05:24:09;-1.30;99.90
10472;DHT22;5283;48.876;8.962;2023-03-03T05:26:37;-1.30;99.90
10472;DHT22;5283;48.876;8.962;2023-03-03T05:29:04;-1.20;99.90
10472;DHT22;5283;48.876;8.962;2023-03-03T05:31:30;-1.20;99.90
10472;DHT22;5283;48.876;8.962;2023-03-03T05:33:57;-1.10;99.90
10472;DHT22;5283;48.876;8.962;2023-03-03T05:36:24;-1.00;99.90
10472;DHT22;5283;48.876;8.962;2023-03-03T05:38:51;-1.00;99.90
10472;DHT22;5283;48.876;8.962;2023-03-03T05:41:18;-0.90;99.90
10472;DHT22;5283;48.876;8.962;2023-03-03T05:43:44;-0.90;99.90
10472;DHT22;5283;48.876;8.962;2023-03-03T05:46:11;-0.90;99.90
10472;DHT22;5283;48.876;8.962;2023-03-03T05:48:38;-0.90;99.90
10472;DHT22;5283;48.876;8.962;2023-03-03T05:51:05;-0.80;99.90
10472;DHT22;5283;48.876;8.962;2023-03-03T05:53:31;-0.80;99.90
10472;DHT22;5283;48.876;8.962;2023-03-03T05:55:58;-0.80;99.90
10472;DHT22;5283;48.876;8.962;2023-03-03T05:58:25;-0.80;99.90
10472;DHT22;5283;48.876;8.962;2023-03-03T06:00:52;-0.80;99.90
10472;DHT22;5283;48.876;8.962;2023-03-03T06:03:19;-0.80;99.90
10472;DHT22;5283;48.876;8.962;2023-03-03T06:05:46;-0.80;99.90
10472;DHT22;5283;48.876;8.962;2023-03-03T06:08:13;-0.70;99.90
10472;DHT22;5283;48.876;8.962;2023-03-03T06:10:40;-0.70;99.90
10472;DHT22;5283;48.876;8.962;2023-03-03T06:13:06;-0.60;99.90
10472;DHT22;5283;48.876;8.962;2023-03-03T06:15:33;-0.60;99.90
10472;DHT22;5283;48.876;8.962;2023-03-03T06:18:00;-0.50;99.90
10472;DHT22;5283;48.876;8.962;2023-03-03T06:20:26;-0.50;99.90
10472;DHT22;5283;48.876;8.962;2023-03-03T06:22:53;-0.50;99.90
10472;DHT22;5283;48.876;8.962;2023-03-03T06:25:20;-0.50;99.90
10472;DHT22;5283;48.876;8.962;2023-03-03T06:27:47;-0.50;99.90
10472;DHT22;5283;48.876;8.962;2023-03-03T06:30:14;-0.50;99.90
10472;DHT22;5283;48.876;8.962;2023-03-03T06:32:41;-0.50;99.90
10472;DHT22;5283;48.876;8.962;2023-03-03T06:35:07;-0.40;99.90
10472;DHT22;5283;48.876;8.962;2023-03-03T06:37:34;-0.30;99.90
10472;DHT22;5283;48.876;8.962;2023-03-03T06:40:02;-0.30;99.90
10472;DHT22;5283;48.876;8.962;2023-03-03T06:42:28;-0.20;99.90
10472;DHT22;5283;48.876;8.962;2023-03-03T06:44:55;-0.20;99.90
10472;DHT22;5283;48.876;8.962;2023-03-03T06:47:22;-0.20;99.90
10472;DHT22;5283;48.876;8.962;2023-03-03T06:49:49;-0.20;99.90
10472;DHT22;5283;48.876;8.962;2023-03-03T06:52:24;-0.20;99.90
10472;DHT22;5283;48.876;8.962;2023-03-03T06:54:57;0.00;99.90
10472;DHT22;5283;48.876;8.962;2023-03-03T06:57:31;0.00;99.90
10472;DHT22;5283;48.876;8.962;2023-03-03T07:00:25;0.00;99.90
10472;DHT22;5283;48.876;8.962;2023-03-03T07:03:06;0.00;99.90
10472;DHT22;5283;48.876;8.962;2023-03-03T07:05:33;0.00;99.90
10472;DHT22;5283;48.876;8.962;2023-03-03T07:08:00;0.10;99.90
10472;DHT22;5283;48.876;8.962;2023-03-03T07:10:29;0.20;99.90
10472;DHT22;5283;48.876;8.962;2023-03-03T07:13:21;0.30;99.90
10472;DHT22;5283;48.876;8.962;2023-03-03T07:15:48;0.40;99.90
10472;DHT22;5283;48.876;8.962;2023-03-03T07:21:30;0.30;99.90
10472;DHT22;5283;48.876;8.962;2023-03-03T07:23:59;0.40;99.90
10472;DHT22;5283;48.876;8.962;2023-03-03T07:26:30;0.50;99.90
10472;DHT22;5283;48.876;8.962;2023-03-03T07:29:08;0.60;99.90
10472;DHT22;5283;48.876;8.962;2023-03-03T07:31:45;0.90;99.90
10472;DHT22;5283;48.876;8.962;2023-03-03T07:34:20;1.00;99.90
10472;DHT22;5283;48.876;8.962;2023-03-03T07:36:58;1.20;99.90
10472;DHT22;5283;48.876;8.962;2023-03-03T07:39:38;1.30;99.90
10472;DHT22;5283;48.876;8.962;2023-03-03T07:42:27;1.50;99.90
10472;DHT22;5283;48.876;8.962;2023-03-03T07:45:00;1.70;99.90
10472;DHT22;5283;48.876;8.962;2023-03-03T07:47:30;1.90;99.90
10472;DHT22;5283;48.876;8.962;2023-03-03T07:50:07;2.10;99.90
10472;DHT22;5283;48.876;8.962;2023-03-03T07:52:41;2.30;99.90
10472;DHT22;5283;48.876;8.962;2023-03-03T07:57:53;2.50;99.90
10472;DHT22;5283;48.876;8.962;2023-03-03T08:03:03;2.60;99.90
10472;DHT22;5283;48.876;8.962;2023-03-03T08:05:33;2.70;99.90
10472;DHT22;5283;48.876;8.962;2023-03-03T08:08:28;2.90;99.90
10472;DHT22;5283;48.876;8.962;2023-03-03T08:11:02;3.00;99.90
10472;DHT22;5283;48.876;8.962;2023-03-03T08:16:20;3.30;99.90
10472;DHT22;5283;48.876;8.962;2023-03-03T08:18:51;3.50;99.90
10472;DHT22;5283;48.876;8.962;2023-03-03T08:21:21;3.80;99.90
10472;DHT22;5283;48.876;8.962;2023-03-03T08:23:48;4.00;99.90
10472;DHT22;5283;48.876;8.962;2023-03-03T08:26:18;4.10;99.90
10472;DHT22;5283;48.876;8.962;2023-03-03T08:28:45;4.30;99.90
10472;DHT22;5283;48.876;8.962;2023-03-03T08:31:12;4.40;99.90
10472;DHT22;5283;48.876;8.962;2023-03-03T08:33:50;4.50;99.90
10472;DHT22;5283;48.876;8.962;2023-03-03T08:36:17;4.60;99.90
10472;DHT22;5283;48.876;8.962;2023-03-03T08:38:44;4.40;99.90
10472;DHT22;5283;48.876;8.962;2023-03-03T08:41:11;4.40;99.90
10472;DHT22;5283;48.876;8.962;2023-03-03T08:43:38;4.40;99.90
10472;DHT22;5283;48.876;8.962;2023-03-03T08:46:05;4.30;99.90
10472;DHT22;5283;48.876;8.962;2023-03-03T08:48:33;4.20;99.90
10472;DHT22;5283;48.876;8.962;2023-03-03T08:51:00;4.20;99.90
10472;DHT22;5283;48.876;8.962;2023-03-03T08:53:27;4.10;99.90
10472;DHT22;5283;48.876;8.962;2023-03-03T08:55:54;4.00;99.90
10472;DHT22;5283;48.876;8.962;2023-03-03T08:58:21;4.00;99.90
10472;DHT22;5283;48.876;8.962;2023-03-03T09:00:59;4.00;99.90
10472;DHT22;5283;48.876;8.962;2023-03-03T09:03:25;4.00;99.90
10472;DHT22;5283;48.876;8.962;2023-03-03T09:05:52;4.00;99.90
10472;DHT22;5283;48.876;8.962;2023-03-03T09:08:19;4.00;99.90
10472;DHT22;5283;48.876;8.962;2023-03-03T09:10:46;4.00;99.90
10472;DHT22;5283;48.876;8.962;2023-03-03T09:13:15;4.00;99.90
10472;DHT22;5283;48.876;8.962;2023-03-03T09:15:42;4.10;99.90
10472;DHT22;5283;48.876;8.962;2023-03-03T09:18:41;4.10;99.90
10472;DHT22;5283;48.876;8.962;2023-03-03T09:21:22;4.10;99.90
10472;DHT22;5283;48.876;8.962;2023-03-03T09:23:56;4.10;99.90
10472;DHT22;5283;48.876;8.962;2023-03-03T09:26:38;4.10;99.90
10472;DHT22;5283;48.876;8.962;2023-03-03T09:29:27;4.10;99.90
10472;DHT22;5283;48.876;8.962;2023-03-03T09:31:59;4.20;99.90
10472;DHT22;5283;48.876;8.962;2023-03-03T09:34:40;4.20;99.90
10472;DHT22;5283;48.876;8.962;2023-03-03T09:37:26;4.30;99.90
10472;DHT22;5283;48.876;8.962;2023-03-03T09:39:55;4.30;99.90
10472;DHT22;5283;48.876;8.962;2023-03-03T09:42:50;4.40;99.90
10472;DHT22;5283;48.876;8.962;2023-03-03T09:48:28;4.60;99.90
10472;DHT22;5283;48.876;8.962;2023-03-03T09:51:09;4.60;99.90
10472;DHT22;5283;48.876;8.962;2023-03-03T09:56:33;4.50;99.90
10472;DHT22;5283;48.876;8.962;2023-03-03T10:07:36;4.70;99.90
10472;DHT22;5283;48.876;8.962;2023-03-03T10:10:24;4.70;99.90
10472;DHT22;5283;48.876;8.962;2023-03-03T10:21:21;4.80;99.90
10472;DHT22;5283;48.876;8.962;2023-03-03T10:23:53;5.10;99.90
10472;DHT22;5283;48.876;8.962;2023-03-03T10:29:48;5.80;99.90
10472;DHT22;5283;48.876;8.962;2023-03-03T10:48:42;7.60;99.90
10472;DHT22;5283;48.876;8.962;2023-03-03T10:57:14;8.00;99.90
10472;DHT22;5283;48.876;8.962;2023-03-03T11:00:04;7.50;99.90
10472;DHT22;5283;48.876;8.962;2023-03-03T11:05:28;7.00;99.90
10472;DHT22;5283;48.876;8.962;2023-03-03T11:08:26;7.00;99.90
10472;DHT22;5283;48.876;8.962;2023-03-03T11:11:17;7.30;99.90
10472;DHT22;5283;48.876;8.962;2023-03-03T11:14:27;7.50;99.90
10472;DHT22;5283;48.876;8.962;2023-03-03T11:17:16;7.80;99.90
10472;DHT22;5283;48.876;8.962;2023-03-03T11:28:35;9.10;99.90
10472;DHT22;5283;48.876;8.962;2023-03-03T11:31:37;9.00;99.90
10472;DHT22;5283;48.876;8.962;2023-03-03T11:36:52;8.70;99.90
10472;DHT22;5283;48.876;8.962;2023-03-03T11:39:22;8.60;99.90
10472;DHT22;5283;48.876;8.962;2023-03-03T11:44:32;8.50;99.90
10472;DHT22;5283;48.876;8.962;2023-03-03T11:50:23;8.30;99.90
10472;DHT22;5283;48.876;8.962;2023-03-03T11:53:19;8.10;99.90
10472;DHT22;5283;48.876;8.962;2023-03-03T11:55:59;8.20;99.90
10472;DHT22;5283;48.876;8.962;2023-03-03T11:58:33;8.70;99.90
10472;DHT22;5283;48.876;8.962;2023-03-03T12:01:38;8.80;99.90
10472;DHT22;5283;48.876;8.962;2023-03-03T12:04:18;8.80;99.90
10472;DHT22;5283;48.876;8.962;2023-03-03T12:12:53;8.30;99.90
10472;DHT22;5283;48.876;8.962;2023-03-03T12:22:04;8.20;99.90
10472;DHT22;5283;48.876;8.962;2023-03-03T12:30:15;9.20;99.90
10472;DHT22;5283;48.876;8.962;2023-03-03T12:36:08;9.20;99.90
10472;DHT22;5283;48.876;8.962;2023-03-03T12:38:52;9.10;99.90
10472;DHT22;5283;48.876;8.962;2023-03-03T12:49:09;8.70;99.90
10472;DHT22;5283;48.876;8.962;2023-03-03T13:00:02;9.40;99.90
10472;DHT22;5283;48.876;8.962;2023-03-03T13:02:57;9.50;99.90
10472;DHT22;5283;48.876;8.962;2023-03-03T13:05:44;9.90;99.90
10472;DHT22;5283;48.876;8.962;2023-03-03T13:11:39;9.70;99.90
10472;DHT22;5283;48.876;8.962;2023-03-03T13:14:34;9.90;99.90
10472;DHT22;5283;48.876;8.962;2023-03-03T13:19:56;9.90;99.90
10472;DHT22;5283;48.876;8.962;2023-03-03T13:22:49;10.00;99.90
10472;DHT22;5283;48.876;8.962;2023-03-03T13:30:54;9.90;99.90
10472;DHT22;5283;48.876;8.962;2023-03-03T13:33:29;9.60;99.90
10472;DHT22;5283;48.876;8.962;2023-03-03T13:36:00;9.40;99.90
10472;DHT22;5283;48.876;8.962;2023-03-03T13:38:32;9.30;99.90
10472;DHT22;5283;48.876;8.962;2023-03-03T13:43:59;9.10;99.90
10472;DHT22;5283;48.876;8.962;2023-03-03T13:49:23;9.00;99.90
10472;DHT22;5283;48.876;8.962;2023-03-03T13:52:07;9.00;99.90
10472;DHT22;5283;48.876;8.962;2023-03-03T13:57:05;9.20;99.90
10472;DHT22;5283;48.876;8.962;2023-03-03T14:07:47;10.20;99.90
10472;DHT22;5283;48.876;8.962;2023-03-03T14:10:40;10.10;99.90
10472;DHT22;5283;48.876;8.962;2023-03-03T14:13:28;10.40;99.90
10472;DHT22;5283;48.876;8.962;2023-03-03T14:16:42;10.60;99.90
10472;DHT22;5283;48.876;8.962;2023-03-03T14:19:28;11.00;99.90
10472;DHT22;5283;48.876;8.962;2023-03-03T14:22:17;11.30;99.90
10472;DHT22;5283;48.876;8.962;2023-03-03T14:25:00;11.40;99.90
10472;DHT22;5283;48.876;8.962;2023-03-03T14:27:35;11.20;99.90
10472;DHT22;5283;48.876;8.962;2023-03-03T14:30:35;11.10;99.90
10472;DHT22;5283;48.876;8.962;2023-03-03T14:35:35;10.90;99.90
10472;DHT22;5283;48.876;8.962;2023-03-03T14:38:21;11.20;99.90
10472;DHT22;5283;48.876;8.962;2023-03-03T14:43:41;11.40;99.90
10472;DHT22;5283;48.876;8.962;2023-03-03T14:46:33;11.40;99.90
10472;DHT22;5283;48.876;8.962;2023-03-03T14:49:05;11.50;99.90
10472;DHT22;5283;48.876;8.962;2023-03-03T14:54:32;11.40;99.90
10472;DHT22;5283;48.876;8.962;2023-03-03T14:57:14;11.40;99.90
10472;DHT22;5283;48.876;8.962;2023-03-03T15:02:37;11.00;99.90
10472;DHT22;5283;48.876;8.962;2023-03-03T15:07:44;11.10;99.90
10472;DHT22;5283;48.876;8.962;2023-03-03T15:10:11;11.00;99.90
10472;DHT22;5283;48.876;8.962;2023-03-03T15:12:40;11.00;99.90
10472;DHT22;5283;48.876;8.962;2023-03-03T15:15:19;11.30;99.90
10472;DHT22;5283;48.876;8.962;2023-03-03T15:18:08;11.30;99.90
10472;DHT22;5283;48.876;8.962;2023-03-03T15:20:51;11.50;99.90
10472;DHT22;5283;48.876;8.962;2023-03-03T15:26:14;11.50;99.90
10472;DHT22;5283;48.876;8.962;2023-03-03T15:29:03;11.40;99.90
10472;DHT22;5283;48.876;8.962;2023-03-03T15:31:53;11.20;99.90
10472;DHT22;5283;48.876;8.962;2023-03-03T15:43:34;11.20;99.90
10472;DHT22;5283;48.876;8.962;2023-03-03T15:54:17;10.80;99.90
10472;DHT22;5283;48.876;8.962;2023-03-03T15:56:55;10.50;99.90
10472;DHT22;5283;48.876;8.962;2023-03-03T16:02:46;10.60;99.90
10472;DHT22;5283;48.876;8.962;2023-03-03T16:05:39;10.60;99.90
10472;DHT22;5283;48.876;8.962;2023-03-03T16:08:19;10.40;99.90
10472;DHT22;5283;48.876;8.962;2023-03-03T16:11:07;10.20;99.90
10472;DHT22;5283;48.876;8.962;2023-03-03T16:19:26;9.20;99.90
10472;DHT22;5283;48.876;8.962;2023-03-03T16:22:11;8.80;99.90
10472;DHT22;5283;48.876;8.962;2023-03-03T16:25:03;8.70;99.90
10472;DHT22;5283;48.876;8.962;2023-03-03T16:27:46;8.50;99.90
10472;DHT22;5283;48.876;8.962;2023-03-03T16:30:30;8.20;99.90
10472;DHT22;5283;48.876;8.962;2023-03-03T16:33:17;8.10;99.90
10472;DHT22;5283;48.876;8.962;2023-03-03T16:36:06;8.10;99.90
10472;DHT22;5283;48.876;8.962;2023-03-03T16:41:28;7.60;99.90
10472;DHT22;5283;48.876;8.962;2023-03-03T16:44:37;7.40;99.90
10472;DHT22;5283;48.876;8.962;2023-03-03T16:50:03;6.90;99.90
10472;DHT22;5283;48.876;8.962;2023-03-03T16:52:42;6.80;99.90
10472;DHT22;5283;48.876;8.962;2023-03-03T17:07:30;5.80;99.90
10472;DHT22;5283;48.876;8.962;2023-03-03T17:09:41;5.70;99.90
10472;DHT22;5283;48.876;8.962;2023-03-03T17:12:37;5.60;99.90
10472;DHT22;5283;48.876;8.962;2023-03-03T17:15:17;5.30;99.90
10472;DHT22;5283;48.876;8.962;2023-03-03T17:20:49;4.40;99.90
10472;DHT22;5283;48.876;8.962;2023-03-03T17:26:25;3.50;99.90
10472;DHT22;5283;48.876;8.962;2023-03-03T17:40:54;2.20;99.90
10472;DHT22;5283;48.876;8.962;2023-03-03T17:43:33;2.00;99.90
10472;DHT22;5283;48.876;8.962;2023-03-03T17:51:50;1.90;99.90
10472;DHT22;5283;48.876;8.962;2023-03-03T17:54:47;1.80;99.90
10472;DHT22;5283;48.876;8.962;2023-03-03T17:57:33;1.70;99.90
10472;DHT22;5283;48.876;8.962;2023-03-03T18:11:28;1.20;99.90
10472;DHT22;5283;48.876;8.962;2023-03-03T18:22:43;0.70;99.90
10472;DHT22;5283;48.876;8.962;2023-03-03T18:27:42;0.50;99.90
10472;DHT22;5283;48.876;8.962;2023-03-03T18:30:13;0.60;99.90
10472;DHT22;5283;48.876;8.962;2023-03-03T18:32:47;0.60;99.90
10472;DHT22;5283;48.876;8.962;2023-03-03T18:35:33;0.60;99.90
10472;DHT22;5283;48.876;8.962;2023-03-03T18:41:09;0.50;99.90
10472;DHT22;5283;48.876;8.962;2023-03-03T18:49:05;0.50;99.90
10472;DHT22;5283;48.876;8.962;2023-03-03T19:04:54;0.40;99.90
10472;DHT22;5283;48.876;8.962;2023-03-03T19:16:03;0.30;99.90
10472;DHT22;5283;48.876;8.962;2023-03-03T19:18:56;0.30;99.90
10472;DHT22;5283;48.876;8.962;2023-03-03T19:21:33;0.30;99.90
10472;DHT22;5283;48.876;8.962;2023-03-03T19:24:08;0.20;99.90
10472;DHT22;5283;48.876;8.962;2023-03-03T19:32:26;0.00;99.90
10472;DHT22;5283;48.876;8.962;2023-03-03T19:35:25;-0.20;99.90
10472;DHT22;5283;48.876;8.962;2023-03-03T19:37:59;-0.30;99.90
10472;DHT22;5283;48.876;8.962;2023-03-03T19:40:37;-0.40;99.90
10472;DHT22;5283;48.876;8.962;2023-03-03T19:46:32;-0.70;99.90
10472;DHT22;5283;48.876;8.962;2023-03-03T19:52:05;-0.90;99.90
10472;DHT22;5283;48.876;8.962;2023-03-03T19:54:56;-1.00;99.90
10472;DHT22;5283;48.876;8.962;2023-03-03T20:03:20;-1.20;99.90
10472;DHT22;5283;48.876;8.962;2023-03-03T20:05:55;-1.20;99.90
10472;DHT22;5283;48.876;8.962;2023-03-03T20:17:10;-1.20;99.90
10472;DHT22;5283;48.876;8.962;2023-03-03T20:19:55;-1.30;99.90
10472;DHT22;5283;48.876;8.962;2023-03-03T20:22:49;-1.20;99.90
10472;DHT22;5283;48.876;8.962;2023-03-03T20:33:46;-1.50;99.90
10472;DHT22;5283;48.876;8.962;2023-03-03T20:44:57;-1.50;99.90
10472;DHT22;5283;48.876;8.962;2023-03-03T20:53:04;-1.60;99.90
10472;DHT22;5283;48.876;8.962;2023-03-03T20:55:48;-1.70;99.90
10472;DHT22;5283;48.876;8.962;2023-03-03T21:01:06;-1.50;99.90
10472;DHT22;5283;48.876;8.962;2023-03-03T21:03:36;-1.50;99.90
10472;DHT22;5283;48.876;8.962;2023-03-03T21:06:17;-1.60;99.90
10472;DHT22;5283;48.876;8.962;2023-03-03T21:08:53;-1.60;99.90
10472;DHT22;5283;48.876;8.962;2023-03-03T21:11:39;-1.70;99.90
10472;DHT22;5283;48.876;8.962;2023-03-03T21:14:25;-1.70;99.90
10472;DHT22;5283;48.876;8.962;2023-03-03T21:16:55;-1.70;99.90
10472;DHT22;5283;48.876;8.962;2023-03-03T21:19:33;-1.70;99.90
10472;DHT22;5283;48.876;8.962;2023-03-03T21:22:02;-1.80;99.90
10472;DHT22;5283;48.876;8.962;2023-03-03T21:24:55;-1.80;99.90
10472;DHT22;5283;48.876;8.962;2023-03-03T21:27:29;-1.80;99.90
10472;DHT22;5283;48.876;8.962;2023-03-03T21:30:14;-1.80;99.90
10472;DHT22;5283;48.876;8.962;2023-03-03T21:32:47;-1.80;99.90
10472;DHT22;5283;48.876;8.962;2023-03-03T21:35:17;-1.90;99.90
10472;DHT22;5283;48.876;8.962;2023-03-03T21:40:27;-1.90;99.90
10472;DHT22;5283;48.876;8.962;2023-03-03T21:42:58;-1.90;99.90
10472;DHT22;5283;48.876;8.962;2023-03-03T21:45:26;-1.90;99.90
10472;DHT22;5283;48.876;8.962;2023-03-03T21:47:55;-1.90;99.90
10472;DHT22;5283;48.876;8.962;2023-03-03T21:50:25;-1.90;99.90
10472;DHT22;5283;48.876;8.962;2023-03-03T21:52:56;-2.00;99.90
10472;DHT22;5283;48.876;8.962;2023-03-03T21:55:23;-2.10;99.90
10472;DHT22;5283;48.876;8.962;2023-03-03T21:57:52;-2.10;99.90
10472;DHT22;5283;48.876;8.962;2023-03-03T22:00:19;-2.10;99.90
10472;DHT22;5283;48.876;8.962;2023-03-03T22:02:45;-2.10;99.90
10472;DHT22;5283;48.876;8.962;2023-03-03T22:05:12;-2.10;99.90
10472;DHT22;5283;48.876;8.962;2023-03-03T22:07:39;-2.10;99.90
10472;DHT22;5283;48.876;8.962;2023-03-03T22:10:06;-2.00;99.90
10472;DHT22;5283;48.876;8.962;2023-03-03T22:12:35;-2.00;99.90
10472;DHT22;5283;48.876;8.962;2023-03-03T22:15:02;-1.90;99.90
10472;DHT22;5283;48.876;8.962;2023-03-03T22:17:28;-2.00;99.90
10472;DHT22;5283;48.876;8.962;2023-03-03T22:19:55;-2.00;99.90
10472;DHT22;5283;48.876;8.962;2023-03-03T22:22:22;-2.00;99.90
10472;DHT22;5283;48.876;8.962;2023-03-03T22:24:49;-2.00;99.90
10472;DHT22;5283;48.876;8.962;2023-03-03T22:27:16;-2.10;99.90
10472;DHT22;5283;48.876;8.962;2023-03-03T22:29:43;-2.10;99.90